createdAt,value
2023-03-29T00:01:07.086Z,10.53
2023-03-29T00:03:34.934Z,9.63
2023-03-29T00:06:05.672Z,10.20
2023-03-29T00:08:34.129Z,12.38
2023-03-29T00:11:01.694Z,9.33
2023-03-29T00:13:28.620Z,7.70
2023-03-29T00:15:56.254Z,8.37
2023-03-29T00:18:23.375Z,6.40
2023-03-29T00:20:57.209Z,11.30
2023-03-29T00:23:25.053Z,7.10
2023-03-29T00:25:53.490Z,6.50
2023-03-29T00:28:20.401Z,7.43
2023-03-29T00:30:47.215Z,8.17
2023-03-29T00:33:14.801Z,7.70
2023-03-29T00:35:42.516Z,7.17
2023-03-29T00:38:09.358Z,5.57
2023-03-29T00:40:45.019Z,5.23
2023-03-29T00:43:12.703Z,7.03
2023-03-29T00:45:39.559Z,7.80
2023-03-29T00:48:11.213Z,5.90
2023-03-29T00:50:45.527Z,5.87
2023-03-29T00:53:13.605Z,8.60
2023-03-29T00:55:40.566Z,5.50
2023-03-29T00:58:08.130Z,5.43
2023-03-29T01:00:40.554Z,6.57
2023-03-29T01:03:13.881Z,5.97
2023-03-29T01:05:44.392Z,5.40
2023-03-29T01:08:21.599Z,6.50
2023-03-29T01:10:51.568Z,6.97
2023-03-29T01:13:21.828Z,9.30
2023-03-29T01:15:48.634Z,7.00
2023-03-29T01:18:15.546Z,10.60
2023-03-29T01:21:05.242Z,10.13
2023-03-29T01:24:06.856Z,9.47
2023-03-29T01:26:42.734Z,4.70
2023-03-29T01:29:16.790Z,5.57
2023-03-29T01:31:51.069Z,7.17
2023-03-29T01:34:25.760Z,6.77
2023-03-29T01:37:07.912Z,7.13
2023-03-29T01:39:35.149Z,8.00
2023-03-29T01:42:14.091Z,6.17
2023-03-29T01:44:44.671Z,6.03
2023-03-29T01:47:13.007Z,6.75
2023-03-29T01:50:02.984Z,8.37
2023-03-29T01:52:58.326Z,5.70
2023-03-29T01:55:34.111Z,6.00
2023-03-29T01:58:01.362Z,6.33
2023-03-29T02:00:29.525Z,6.23
2023-03-29T02:03:01.516Z,5.30
2023-03-29T02:05:29.085Z,6.37
2023-03-29T02:07:57.580Z,6.93
2023-03-29T02:10:24.578Z,6.67
2023-03-29T02:12:51.302Z,6.23
2023-03-29T02:15:19.791Z,6.17
2023-03-29T02:17:47.861Z,6.07
2023-03-29T02:20:39.066Z,6.07
2023-03-29T02:23:14.503Z,6.17
2023-03-29T02:25:41.863Z,5.40
2023-03-29T02:28:08.630Z,5.17
2023-03-29T02:30:57.269Z,5.27
2023-03-29T02:33:43.392Z,4.33
2023-03-29T02:36:17.682Z,4.40
2023-03-29T02:38:45.001Z,7.50
2023-03-29T02:41:12.177Z,5.73
2023-03-29T02:43:38.953Z,4.53
2023-03-29T02:46:06.335Z,3.57
2023-03-29T02:48:33.088Z,4.50
2023-03-29T02:51:01.810Z,3.93
2023-03-29T02:53:39.747Z,4.57
2023-03-29T02:56:07.278Z,3.83
2023-03-29T02:58:34.058Z,4.23
2023-03-29T03:01:01.294Z,5.27
2023-03-29T03:03:29.086Z,3.73
2023-03-29T03:05:56.033Z,4.40
2023-03-29T03:08:22.826Z,3.07
2023-03-29T03:10:49.928Z,4.80
2023-03-29T03:13:17.152Z,4.67
2023-03-29T03:15:48.834Z,4.80
2023-03-29T03:18:16.846Z,5.03
2023-03-29T03:20:46.917Z,5.90
2023-03-29T03:23:13.695Z,2.80
2023-03-29T03:25:40.490Z,4.30
2023-03-29T03:28:07.612Z,3.57
2023-03-29T03:30:34.725Z,5.30
2023-03-29T03:33:01.576Z,4.47
2023-03-29T03:35:28.529Z,4.57
2023-03-29T03:37:55.396Z,2.57
2023-03-29T03:40:22.635Z,5.13
2023-03-29T03:42:49.528Z,9.97
2023-03-29T03:45:16.532Z,6.50
2023-03-29T03:47:43.446Z,8.60
2023-03-29T03:50:11.575Z,15.97
2023-03-29T03:52:38.387Z,17.60
2023-03-29T03:55:05.520Z,12.20
2023-03-29T03:57:33.162Z,13.13
2023-03-29T04:00:00.015Z,12.63
2023-03-29T04:02:27.577Z,9.13
2023-03-29T04:04:54.873Z,13.27
2023-03-29T04:07:21.706Z,7.37
2023-03-29T04:09:48.902Z,10.07
2023-03-29T04:12:15.760Z,20.30
2023-03-29T04:14:42.729Z,21.87
2023-03-29T04:17:09.679Z,12.70
2023-03-29T04:19:36.514Z,14.10
2023-03-29T04:22:03.309Z,9.27
2023-03-29T04:24:30.141Z,14.63
2023-03-29T04:26:56.950Z,13.27
2023-03-29T04:29:23.678Z,11.87
2023-03-29T04:31:50.675Z,12.53
2023-03-29T04:34:17.428Z,7.47
2023-03-29T04:36:44.229Z,10.43
2023-03-29T04:39:11.012Z,13.60
2023-03-29T04:41:37.768Z,10.13
2023-03-29T04:44:04.634Z,19.10
2023-03-29T04:46:32.364Z,9.30
2023-03-29T04:48:59.299Z,12.07
2023-03-29T04:51:26.289Z,13.27
2023-03-29T04:53:53.214Z,7.53
2023-03-29T04:56:19.966Z,8.70
2023-03-29T04:58:46.796Z,7.50
2023-03-29T05:01:13.584Z,8.10
2023-03-29T05:03:40.408Z,8.20
2023-03-29T05:06:08.752Z,9.30
2023-03-29T05:08:39.289Z,28.90
2023-03-29T05:11:07.892Z,19.80
2023-03-29T05:13:34.971Z,16.97
2023-03-29T05:16:02.462Z,12.80
2023-03-29T05:18:29.857Z,10.53
2023-03-29T05:20:56.949Z,12.20
2023-03-29T05:23:23.866Z,12.10
2023-03-29T05:25:51.430Z,13.00
2023-03-29T05:28:18.415Z,16.90
2023-03-29T05:30:45.988Z,14.77
2023-03-29T05:33:12.840Z,12.50
2023-03-29T05:35:39.727Z,16.10
2023-03-29T05:38:06.770Z,21.77
2023-03-29T05:40:33.977Z,11.47
2023-03-29T05:43:02.583Z,13.23
2023-03-29T05:45:29.946Z,41.50
2023-03-29T05:47:57.708Z,13.80
2023-03-29T05:50:24.788Z,12.67
2023-03-29T05:52:51.672Z,162.17
2023-03-29T05:55:18.495Z,34.03
2023-03-29T05:57:45.305Z,19.77
2023-03-29T06:00:25.657Z,15.13
2023-03-29T06:02:52.718Z,9.13
2023-03-29T06:05:20.135Z,12.43
2023-03-29T06:07:48.850Z,16.30
2023-03-29T06:10:15.914Z,10.77
2023-03-29T06:12:42.761Z,12.93
2023-03-29T06:15:10.303Z,11.67
2023-03-29T06:17:37.121Z,12.13
2023-03-29T06:20:09.061Z,13.57
2023-03-29T06:22:36.144Z,15.30
2023-03-29T06:25:02.991Z,10.20
2023-03-29T06:27:29.960Z,16.07
2023-03-29T06:29:56.883Z,11.20
2023-03-29T06:32:23.694Z,14.83
2023-03-29T06:34:50.868Z,12.73
2023-03-29T06:37:17.967Z,12.70
2023-03-29T06:39:44.826Z,18.25
2023-03-29T06:42:20.529Z,11.90
2023-03-29T06:44:48.403Z,11.30
2023-03-29T06:47:15.863Z,15.63
2023-03-29T06:49:42.846Z,9.38
2023-03-29T06:52:09.890Z,12.32
2023-03-29T06:54:36.763Z,18.02
2023-03-29T06:57:05.407Z,20.15
2023-03-29T06:59:32.283Z,20.52
2023-03-29T07:01:59.711Z,17.52
2023-03-29T07:04:26.672Z,16.30
2023-03-29T07:07:01.740Z,9.73
2023-03-29T07:09:32.230Z,16.60
2023-03-29T07:11:59.214Z,19.00
2023-03-29T07:14:30.087Z,23.35
2023-03-29T07:16:58.447Z,18.38
2023-03-29T07:19:27.501Z,22.63
2023-03-29T07:21:54.345Z,27.88
2023-03-29T07:24:21.656Z,25.80
2023-03-29T07:27:00.076Z,23.15
2023-03-29T07:29:30.487Z,16.63
2023-03-29T07:31:57.377Z,11.75
2023-03-29T07:34:24.432Z,10.88
2023-03-29T07:36:52.209Z,14.45
2023-03-29T07:39:19.001Z,11.45
2023-03-29T07:41:45.966Z,11.57
2023-03-29T07:44:12.756Z,12.32
2023-03-29T07:46:39.593Z,19.33
2023-03-29T07:49:08.146Z,11.18
2023-03-29T07:51:36.664Z,16.80
2023-03-29T07:54:03.617Z,15.38
2023-03-29T07:56:30.405Z,16.83
2023-03-29T07:58:57.310Z,15.93
2023-03-29T08:01:24.797Z,17.60
2023-03-29T08:03:52.370Z,21.67
2023-03-29T08:06:19.405Z,20.67
2023-03-29T08:08:46.350Z,21.05
2023-03-29T08:11:14.144Z,50.30
2023-03-29T08:13:41.842Z,17.55
2023-03-29T08:16:08.952Z,11.23
2023-03-29T08:18:35.946Z,20.15
2023-03-29T08:21:03.125Z,19.75
2023-03-29T08:23:30.210Z,15.15
2023-03-29T08:25:57.042Z,18.30
2023-03-29T08:28:24.373Z,13.07
2023-03-29T08:30:51.218Z,20.00
2023-03-29T08:33:18.129Z,18.30
2023-03-29T08:35:45.026Z,23.65
2023-03-29T08:38:12.557Z,20.98
2023-03-29T08:40:39.416Z,18.45
2023-03-29T08:43:15.363Z,9.93
2023-03-29T08:46:00.858Z,19.83
2023-03-29T08:48:32.736Z,13.23
2023-03-29T08:51:21.576Z,13.55
2023-03-29T08:53:53.818Z,10.32
2023-03-29T08:56:26.306Z,11.63
2023-03-29T08:58:54.039Z,11.93
2023-03-29T09:01:21.815Z,15.02
2023-03-29T09:04:09.151Z,17.70
2023-03-29T09:06:36.201Z,10.13
2023-03-29T09:09:03.230Z,9.65
2023-03-29T09:11:29.990Z,13.05
2023-03-29T09:14:13.305Z,59.03
2023-03-29T09:16:49.494Z,14.88
2023-03-29T09:19:34.868Z,17.33
2023-03-29T09:22:08.502Z,26.85
2023-03-29T09:25:14.046Z,9.55
2023-03-29T09:27:45.201Z,10.90
2023-03-29T09:30:39.338Z,10.75
2023-03-29T09:33:25.640Z,11.45
2023-03-29T09:36:11.876Z,9.90
2023-03-29T09:38:42.382Z,6.03
2023-03-29T09:41:30.257Z,8.02
2023-03-29T09:43:58.426Z,6.55
2023-03-29T09:46:30.285Z,6.88
2023-03-29T09:48:57.257Z,11.15
2023-03-29T09:51:27.071Z,11.85
2023-03-29T09:53:56.624Z,9.70
2023-03-29T09:56:23.369Z,7.00
2023-03-29T09:58:50.239Z,8.82
2023-03-29T10:01:20.268Z,10.27
2023-03-29T10:03:53.606Z,8.23
2023-03-29T10:06:21.329Z,7.18
2023-03-29T10:08:51.740Z,8.13
2023-03-29T10:11:35.512Z,5.55
2023-03-29T10:14:11.611Z,6.95
2023-03-29T10:16:42.440Z,8.80
2023-03-29T10:19:21.324Z,7.10
2023-03-29T10:21:52.791Z,6.80
2023-03-29T10:24:24.166Z,7.30
2023-03-29T10:27:04.435Z,10.30
2023-03-29T10:29:42.263Z,8.63
2023-03-29T10:32:24.165Z,6.47
2023-03-29T10:34:51.153Z,9.98
2023-03-29T10:37:19.503Z,9.82
2023-03-29T10:39:47.553Z,9.82
2023-03-29T10:42:17.196Z,9.88
2023-03-29T10:44:44.056Z,41.67
2023-03-29T10:47:19.677Z,20.35
2023-03-29T10:49:56.610Z,16.55
2023-03-29T10:52:24.136Z,17.35
2023-03-29T10:54:51.810Z,11.35
2023-03-29T10:57:27.977Z,13.95
2023-03-29T11:00:07.454Z,17.35
2023-03-29T11:02:59.316Z,11.30
2023-03-29T11:05:28.663Z,18.40
2023-03-29T11:08:01.290Z,16.02
2023-03-29T11:10:54.238Z,13.48
2023-03-29T11:13:39.783Z,13.30
2023-03-29T11:16:30.583Z,11.35
2023-03-29T11:21:26.613Z,15.27
2023-03-29T11:24:13.865Z,10.93
2023-03-29T11:26:53.908Z,10.15
2023-03-29T11:29:25.530Z,12.70
2023-03-29T11:32:10.426Z,37.38
2023-03-29T11:34:49.597Z,17.17
2023-03-29T11:37:23.221Z,15.68
2023-03-29T11:39:53.215Z,16.02
2023-03-29T11:42:23.537Z,15.43
2023-03-29T11:44:53.497Z,13.60
2023-03-29T11:47:23.166Z,15.02
2023-03-29T11:50:07.822Z,13.10
2023-03-29T11:52:37.898Z,16.08
2023-03-29T11:55:12.709Z,13.50
2023-03-29T11:57:43.161Z,20.70
2023-03-29T12:00:25.103Z,13.30
2023-03-29T12:03:15.267Z,13.85
2023-03-29T12:05:59.216Z,15.80
2023-03-29T12:08:48.258Z,17.42
2023-03-29T12:11:31.077Z,17.17
2023-03-29T12:14:05.910Z,15.43
2023-03-29T12:16:52.836Z,16.00
2023-03-29T12:19:33.722Z,16.98
2023-03-29T12:24:30.241Z,16.00
2023-03-29T12:27:29.682Z,13.65
2023-03-29T12:30:18.616Z,19.00
2023-03-29T12:33:15.954Z,17.42
2023-03-29T12:36:10.762Z,15.93
2023-03-29T12:38:37.778Z,18.52
2023-03-29T12:41:17.483Z,18.63
2023-03-29T12:43:44.392Z,27.10
2023-03-29T12:46:24.626Z,22.88
2023-03-29T12:48:55.833Z,19.17
2023-03-29T12:51:27.304Z,8.63
2023-03-29T12:53:54.729Z,10.95
2023-03-29T12:56:23.663Z,15.27
2023-03-29T12:58:59.793Z,8.80
2023-03-29T13:01:28.009Z,7.57
2023-03-29T13:04:12.270Z,10.80
2023-03-29T13:07:03.480Z,11.02
2023-03-29T13:09:54.426Z,9.15
2023-03-29T13:12:35.104Z,7.90
2023-03-29T13:15:22.968Z,5.55
2023-03-29T13:17:57.009Z,10.52
2023-03-29T13:21:00.982Z,12.40
2023-03-29T13:23:31.791Z,9.98
2023-03-29T13:28:51.202Z,11.00
2023-03-29T13:31:21.079Z,12.25
2023-03-29T13:33:58.658Z,8.82
2023-03-29T13:36:41.027Z,10.20
2023-03-29T13:39:13.705Z,19.98
2023-03-29T13:41:40.828Z,14.35
2023-03-29T13:44:22.620Z,16.98
2023-03-29T13:46:50.708Z,11.73
2023-03-29T13:49:23.160Z,21.20
2023-03-29T13:52:17.930Z,10.40
2023-03-29T13:54:53.995Z,15.15
2023-03-29T13:57:23.325Z,9.93
2023-03-29T14:00:20.275Z,18.63
2023-03-29T14:02:57.828Z,10.95
2023-03-29T14:05:47.630Z,16.77
2023-03-29T14:08:29.267Z,17.55
2023-03-29T14:10:56.296Z,19.63
2023-03-29T14:13:24.122Z,16.08
2023-03-29T14:15:52.410Z,17.80
2023-03-29T14:18:23.410Z,16.80
2023-03-29T14:20:53.473Z,15.40
2023-03-29T14:23:24.634Z,9.10
2023-03-29T14:25:51.520Z,20.85
2023-03-29T14:28:28.423Z,9.13
2023-03-29T14:30:56.208Z,16.15
2023-03-29T14:33:27.382Z,15.18
2023-03-29T14:35:55.382Z,18.95
2023-03-29T14:38:23.163Z,15.38
2023-03-29T14:40:50.442Z,10.18
2023-03-29T14:43:24.233Z,7.90
2023-03-29T14:45:51.091Z,16.08
2023-03-29T14:48:17.983Z,12.68
2023-03-29T14:50:44.898Z,12.40
2023-03-29T14:53:20.377Z,14.90
2023-03-29T14:55:52.362Z,19.65
2023-03-29T14:58:31.843Z,17.63
2023-03-29T15:00:58.848Z,16.33
2023-03-29T15:03:29.228Z,18.95
2023-03-29T15:06:03.126Z,11.85
2023-03-29T15:08:35.634Z,12.70
2023-03-29T15:11:03.033Z,21.23
2023-03-29T15:13:29.924Z,14.30
2023-03-29T15:16:01.291Z,10.13
2023-03-29T15:18:34.944Z,7.90
2023-03-29T15:21:01.938Z,12.68
2023-03-29T15:23:41.183Z,11.07
2023-03-29T15:26:37.641Z,12.02
2023-03-29T15:29:17.247Z,12.70
2023-03-29T15:31:53.673Z,12.57
2023-03-29T15:34:28.007Z,10.88
2023-03-29T15:36:54.799Z,9.77
2023-03-29T15:39:21.633Z,8.75
2023-03-29T15:41:49.345Z,7.57
2023-03-29T15:44:17.610Z,10.57
2023-03-29T15:46:44.582Z,12.07
2023-03-29T15:49:14.517Z,9.68
2023-03-29T15:51:41.540Z,23.42
2023-03-29T15:54:09.241Z,19.92
2023-03-29T15:56:43.202Z,10.80
2023-03-29T15:59:11.706Z,18.55
2023-03-29T16:01:38.932Z,11.00
2023-03-29T16:04:16.506Z,8.13
2023-03-29T16:06:44.398Z,6.90
2023-03-29T16:09:14.100Z,32.17
2023-03-29T16:11:41.788Z,10.77
2023-03-29T16:14:22.995Z,13.88
2023-03-29T16:16:50.730Z,41.95
2023-03-29T16:19:18.463Z,19.13
2023-03-29T16:21:45.336Z,16.88
2023-03-29T16:24:16.973Z,23.60
2023-03-29T16:26:43.807Z,20.92
2023-03-29T16:29:10.772Z,10.52
2023-03-29T16:31:37.649Z,18.42
2023-03-29T16:34:04.820Z,19.98
2023-03-29T16:36:33.024Z,18.02
2023-03-29T16:39:00.140Z,14.85
2023-03-29T16:41:27.088Z,21.02
2023-03-29T16:43:53.877Z,14.80
2023-03-29T16:46:21.070Z,11.77
2023-03-29T16:48:48.942Z,12.95
2023-03-29T16:51:15.754Z,18.55
2023-03-29T16:53:43.151Z,20.75
2023-03-29T16:56:10.943Z,25.58
2023-03-29T16:58:41.216Z,25.83
2023-03-29T17:01:13.365Z,36.95
2023-03-29T17:03:40.442Z,29.08
2023-03-29T17:06:08.117Z,37.55
2023-03-29T17:08:35.052Z,44.40
2023-03-29T17:11:03.113Z,53.53
2023-03-29T17:13:30.057Z,52.10
2023-03-29T17:15:57.212Z,60.70
2023-03-29T17:18:25.051Z,51.15
2023-03-29T17:20:52.201Z,28.77
2023-03-29T17:23:19.099Z,34.67
2023-03-29T17:25:45.914Z,27.20
2023-03-29T17:28:12.820Z,21.58
2023-03-29T17:30:39.802Z,17.85
2023-03-29T17:33:08.029Z,16.58
2023-03-29T17:35:35.079Z,18.92
2023-03-29T17:38:02.916Z,11.40
2023-03-29T17:40:29.779Z,21.92
2023-03-29T17:42:56.595Z,19.48
2023-03-29T17:45:23.494Z,19.48
2023-03-29T17:47:50.552Z,20.02
2023-03-29T17:50:17.610Z,29.85
2023-03-29T17:52:44.582Z,20.10
2023-03-29T17:55:13.555Z,13.00
2023-03-29T17:57:40.782Z,19.58
2023-03-29T18:00:09.443Z,22.48
2023-03-29T18:02:36.438Z,19.38
2023-03-29T18:05:04.460Z,19.98
2023-03-29T18:07:31.673Z,19.98
2023-03-29T18:09:58.527Z,22.33
2023-03-29T18:12:26.222Z,17.88
2023-03-29T18:14:53.061Z,17.48
2023-03-29T18:17:20.320Z,15.23
2023-03-29T18:19:47.100Z,17.85
2023-03-29T18:22:13.939Z,17.38
2023-03-29T18:24:40.880Z,11.75
2023-03-29T18:27:07.750Z,8.27
2023-03-29T18:29:34.595Z,12.85
2023-03-29T18:32:02.998Z,12.45
2023-03-29T18:34:30.753Z,10.52
2023-03-29T18:36:58.043Z,10.50
2023-03-29T18:39:25.116Z,10.50
2023-03-29T18:41:52.056Z,6.68
2023-03-29T18:44:18.871Z,7.15
2023-03-29T18:46:45.752Z,5.63
2023-03-29T18:49:13.208Z,5.97
2023-03-29T18:51:42.039Z,8.18
2023-03-29T18:54:09.138Z,8.95
2023-03-29T18:56:35.995Z,8.52
2023-03-29T18:59:06.567Z,7.53
2023-03-29T19:01:33.587Z,19.67
2023-03-29T19:04:00.960Z,14.52
2023-03-29T19:06:28.112Z,18.92
2023-03-29T19:08:58.273Z,12.68
2023-03-29T19:11:26.998Z,11.50
2023-03-29T19:13:55.362Z,4.82
2023-03-29T19:16:22.492Z,6.57
2023-03-29T19:18:49.388Z,8.10
2023-03-29T19:21:16.202Z,7.90
2023-03-29T19:23:42.973Z,9.93
2023-03-29T19:26:10.869Z,5.70
2023-03-29T19:28:37.819Z,7.25
2023-03-29T19:31:04.927Z,6.35
2023-03-29T19:33:31.752Z,26.38
2023-03-29T19:35:58.579Z,19.92
2023-03-29T19:38:25.394Z,14.98
2023-03-29T19:40:52.374Z,8.15
2023-03-29T19:43:20.724Z,7.05
2023-03-29T19:45:48.714Z,8.27
2023-03-29T19:48:22.242Z,8.57
2023-03-29T19:50:49.938Z,9.10
2023-03-29T19:53:16.861Z,4.75
2023-03-29T19:55:45.518Z,6.47
2023-03-29T19:58:12.929Z,7.57
2023-03-29T20:00:39.934Z,5.18
2023-03-29T20:03:10.589Z,5.22
2023-03-29T20:08:05.248Z,6.13
2023-03-29T20:10:32.161Z,23.27
2023-03-29T20:12:59.113Z,9.18
2023-03-29T20:15:26.116Z,9.50
2023-03-29T20:17:55.212Z,10.63
2023-03-29T20:20:24.857Z,5.18
2023-03-29T20:22:53.995Z,5.82
2023-03-29T20:25:21.277Z,6.18
2023-03-29T20:27:49.473Z,3.78
2023-03-29T20:30:16.409Z,9.95
2023-03-29T20:32:43.263Z,26.33
2023-03-29T20:35:11.576Z,50.50
2023-03-29T20:37:38.384Z,22.02
2023-03-29T20:40:06.682Z,22.90
2023-03-29T20:42:34.546Z,24.83
2023-03-29T20:45:01.905Z,69.65
2023-03-29T20:47:29.416Z,38.95
2023-03-29T20:49:56.981Z,34.88
2023-03-29T20:52:24.065Z,15.35
2023-03-29T20:54:50.974Z,13.27
2023-03-29T20:57:19.107Z,8.32
2023-03-29T20:59:46.070Z,6.90
2023-03-29T21:02:18.997Z,7.18
2023-03-29T21:04:49.843Z,4.45
2023-03-29T21:07:17.213Z,6.70
2023-03-29T21:09:44.403Z,4.20
2023-03-29T21:12:11.248Z,5.75
2023-03-29T21:14:38.041Z,6.35
2023-03-29T21:17:04.825Z,6.68
2023-03-29T21:19:31.648Z,5.68
2023-03-29T21:21:58.926Z,5.53
2023-03-29T21:24:25.925Z,5.43
2023-03-29T21:26:52.690Z,3.85
2023-03-29T21:29:19.588Z,5.47
2023-03-29T21:31:46.383Z,5.82
2023-03-29T21:34:13.193Z,27.35
2023-03-29T21:36:40.357Z,27.27
2023-03-29T21:39:07.225Z,36.65
2023-03-29T21:41:34.062Z,35.95
2023-03-29T21:44:00.971Z,42.92
2023-03-29T21:46:27.861Z,44.03
2023-03-29T21:48:54.728Z,53.63
2023-03-29T21:51:21.544Z,46.40
2023-03-29T21:53:48.329Z,48.50
2023-03-29T21:56:15.480Z,48.85
2023-03-29T21:58:42.511Z,54.17
2023-03-29T22:01:10.619Z,54.97
2023-03-29T22:03:37.922Z,52.25
2023-03-29T22:06:08.532Z,49.47
2023-03-29T22:08:38.771Z,48.92
2023-03-29T22:11:08.459Z,45.70
2023-03-29T22:13:35.470Z,45.38
2023-03-29T22:16:03.920Z,47.25
2023-03-29T22:18:42.209Z,52.08
2023-03-29T22:21:14.386Z,60.92
2023-03-29T22:23:42.260Z,57.72
2023-03-29T22:26:09.731Z,60.40
2023-03-29T22:28:36.957Z,70.72
2023-03-29T22:31:08.650Z,69.40
2023-03-29T22:33:35.604Z,71.38
2023-03-29T22:36:02.882Z,86.05
2023-03-29T22:38:29.706Z,68.25
2023-03-29T22:40:56.564Z,67.65
2023-03-29T22:43:23.402Z,60.85
2023-03-29T22:45:50.420Z,59.35
2023-03-29T22:48:17.277Z,72.53
2023-03-29T22:50:46.708Z,66.25
2023-03-29T22:53:13.709Z,67.85
2023-03-29T22:55:40.558Z,61.03
2023-03-29T22:58:07.394Z,68.93
2023-03-29T23:00:34.185Z,59.00
2023-03-29T23:03:01.135Z,68.90
2023-03-29T23:05:28.725Z,60.08
2023-03-29T23:07:55.854Z,53.55
2023-03-29T23:10:22.742Z,53.60
2023-03-29T23:12:49.697Z,59.60
2023-03-29T23:15:22.862Z,62.10
2023-03-29T23:17:49.808Z,60.03
2023-03-29T23:20:16.694Z,64.47
2023-03-29T23:22:43.743Z,55.83
2023-03-29T23:25:10.719Z,59.65
2023-03-29T23:27:37.629Z,64.10
2023-03-29T23:30:07.576Z,59.40
2023-03-29T23:32:34.548Z,57.03
2023-03-29T23:35:01.387Z,55.75
2023-03-29T23:37:28.104Z,57.05
2023-03-29T23:39:54.894Z,78.07
2023-03-29T23:42:22.642Z,68.60
2023-03-29T23:44:49.706Z,64.18
2023-03-29T23:47:16.686Z,60.40
2023-03-29T23:49:45.431Z,58.10
2023-03-29T23:52:12.557Z,66.13
2023-03-29T23:54:39.296Z,62.45
2023-03-29T23:57:06.253Z,60.83
2023-03-29T23:59:37.641Z,47.67
